Time;durP1;ratioP1;P1;durP2;ratioP2;P2;SDS_P1;SDS_P2;PMS_P1;PMS_P2;Temp;Humidity;BMP_temperature;BMP_pressure;BME280_temperature;BME280_humidity;BME280_pressure;Samples;Min_cycle;Max_cycle;Signal;HPM_P1;HPM_P2
2022/09/19 00:01:53;;;;;;;8.48;4.60;;;;;;;5.27;100.00;93200.41;5112636;28;20052;-70
2022/09/19 00:04:22;;;;;;;6.68;4.15;;;;;;;5.24;100.00;93198.19;5112453;28;20047;-70
2022/09/19 00:06:50;;;;;;;7.25;3.55;;;;;;;5.20;100.00;93188.34;5112598;28;20043;-70
2022/09/19 00:09:19;;;;;;;5.82;3.67;;;;;;;5.21;100.00;93187.41;5112051;28;20085;-70
2022/09/19 00:11:48;;;;;;;8.63;4.30;;;;;;;5.32;100.00;93187.94;5111954;28;20056;-70
2022/09/19 00:14:16;;;;;;;7.65;3.92;;;;;;;5.32;100.00;93186.16;5112073;28;20088;-70
2022/09/19 00:16:46;;;;;;;6.78;3.50;;;;;;;5.29;100.00;93189.06;5112208;28;20472;-70
2022/09/19 00:19:15;;;;;;;6.82;3.42;;;;;;;5.25;100.00;93180.19;5112286;28;20092;-70
2022/09/19 00:21:45;;;;;;;6.50;3.67;;;;;;;5.25;100.00;93181.94;5111860;28;20082;-70
2022/09/19 00:26:57;;;;;;;5.28;3.60;;;;;;;5.13;100.00;93173.97;5111959;28;20058;-70
2022/09/19 00:29:25;;;;;;;5.32;3.22;;;;;;;5.05;100.00;93183.28;5111860;28;20409;-70
2022/09/19 00:31:53;;;;;;;7.50;3.58;;;;;;;5.08;100.00;93182.13;5111736;28;20446;-69
2022/09/19 00:34:20;;;;;;;4.63;2.63;;;;;;;4.97;100.00;93169.84;5111578;28;20085;-69
2022/09/19 00:36:48;;;;;;;4.45;2.78;;;;;;;5.10;100.00;93195.50;5111736;28;20043;-69
2022/09/19 00:39:17;;;;;;;2.92;2.17;;;;;;;5.07;100.00;93186.44;5111850;28;20089;-69
2022/09/19 00:41:45;;;;;;;4.55;2.13;;;;;;;5.09;100.00;93183.69;5111764;28;20047;-69
2022/09/19 00:44:45;;;;;;;5.57;2.42;;;;;;;5.04;100.00;93186.00;5111574;28;20039;-69
2022/09/19 00:47:18;;;;;;;5.95;2.60;;;;;;;5.00;100.00;93188.09;5111627;28;20047;-69
2022/09/19 00:49:49;;;;;;;2.90;1.73;;;;;;;5.02;100.00;93180.28;5111386;28;20056;-69
2022/09/19 00:52:20;;;;;;;3.78;2.15;;;;;;;5.05;100.00;93180.72;5111389;28;20085;-69
2022/09/19 00:54:49;;;;;;;4.45;2.30;;;;;;;4.98;100.00;93189.25;5111334;28;20051;-69
2022/09/19 00:57:17;;;;;;;5.90;2.53;;;;;;;4.93;100.00;93182.94;5111586;28;20039;-69
2022/09/19 00:59:49;;;;;;;5.70;2.60;;;;;;;4.98;100.00;93176.50;5111519;28;20051;-69
2022/09/19 01:02:22;;;;;;;4.72;2.20;;;;;;;4.92;100.00;93178.78;5111605;28;20093;-69
2022/09/19 01:04:49;;;;;;;4.13;2.28;;;;;;;4.79;100.00;93168.44;5111534;28;20047;-69
2022/09/19 01:07:24;;;;;;;4.35;2.28;;;;;;;4.72;100.00;93172.66;5111031;28;20051;-69
2022/09/19 01:09:57;;;;;;;3.65;2.15;;;;;;;4.78;100.00;93169.41;5111252;28;20117;-69
2022/09/19 01:12:32;;;;;;;4.75;2.17;;;;;;;4.80;100.00;93175.09;5111008;28;20508;-69
2022/09/19 01:15:20;;;;;;;3.42;1.90;;;;;;;4.75;100.00;93175.63;5111060;28;20047;-69
2022/09/19 01:17:51;;;;;;;4.90;2.10;;;;;;;4.73;100.00;93169.94;5111262;28;20122;-69
2022/09/19 01:20:52;;;;;;;4.68;2.45;;;;;;;4.74;100.00;93175.81;5111417;28;20096;-69
2022/09/19 01:23:35;;;;;;;7.35;2.83;;;;;;;4.79;100.00;93174.34;5111100;28;20085;-69
2022/09/19 01:26:16;;;;;;;6.00;2.78;;;;;;;4.83;100.00;93179.84;5111179;28;20043;-69
2022/09/19 01:28:50;;;;;;;6.55;2.38;;;;;;;4.82;100.00;93175.75;5111123;28;20051;-69
2022/09/19 01:31:22;;;;;;;5.70;2.35;;;;;;;4.81;100.00;93182.56;5110986;28;20047;-69
2022/09/19 01:34:02;;;;;;;6.72;2.80;;;;;;;4.72;100.00;93175.97;5110648;28;20534;-69
2022/09/19 01:36:35;;;;;;;6.35;3.15;;;;;;;4.76;100.00;93169.56;5111012;28;20040;-69
2022/09/19 01:39:04;;;;;;;8.55;2.47;;;;;;;4.68;100.00;93174.75;5110790;28;20104;-69
2022/09/19 01:41:31;;;;;;;6.32;2.72;;;;;;;4.64;100.00;93169.22;5111096;28;20104;-69
2022/09/19 01:44:04;;;;;;;5.50;3.00;;;;;;;4.59;100.00;93163.88;5110661;28;20101;-69
2022/09/19 01:46:41;;;;;;;6.90;2.92;;;;;;;4.53;100.00;93172.19;5110483;28;20556;-69
2022/09/19 01:49:22;;;;;;;6.15;2.85;;;;;;;4.54;100.00;93164.38;5110050;28;20089;-68
2022/09/19 01:51:56;;;;;;;6.30;3.00;;;;;;;4.51;100.00;93164.75;5110618;28;20047;-68
2022/09/19 01:54:34;;;;;;;7.43;3.65;;;;;;;4.40;100.00;93163.38;5110532;28;20445;-68
2022/09/19 01:57:14;;;;;;;6.25;3.47;;;;;;;4.38;100.00;93156.91;5110473;28;20039;-68
2022/09/19 02:00:08;;;;;;;5.95;3.45;;;;;;;4.34;100.00;93153.91;5109914;28;20097;-69
2022/09/19 02:02:46;;;;;;;6.10;3.10;;;;;;;4.31;100.00;93146.63;5106881;28;20044;-69
2022/09/19 02:05:17;;;;;;;5.28;3.28;;;;;;;4.31;100.00;93143.28;5110467;28;20116;-69
2022/09/19 02:07:52;;;;;;;5.05;3.05;;;;;;;4.40;100.00;93149.91;5110117;28;20140;-69
2022/09/19 02:10:22;;;;;;;5.00;3.03;;;;;;;4.40;100.00;93149.91;5110235;28;20108;-69
2022/09/19 02:12:53;;;;;;;6.72;3.42;;;;;;;4.27;100.00;93128.38;5110139;28;20047;-69
2022/09/19 02:15:26;;;;;;;7.55;3.47;;;;;;;4.30;100.00;93142.50;5110200;28;20043;-69
2022/09/19 02:17:57;;;;;;;7.32;3.22;;;;;;;4.34;100.00;93142.94;5109360;28;20058;-69
2022/09/19 02:20:29;;;;;;;6.32;3.17;;;;;;;4.27;100.00;93141.09;5109817;28;20048;-69
2022/09/19 02:23:00;;;;;;;6.47;3.15;;;;;;;4.21;100.00;93134.16;5109916;28;20097;-69
2022/09/19 02:25:33;;;;;;;5.82;3.63;;;;;;;4.30;100.00;93145.03;5109558;28;20043;-69
2022/09/19 02:28:05;;;;;;;7.43;3.05;;;;;;;4.25;100.00;93140.47;5109761;28;20055;-69
2022/09/19 02:30:34;;;;;;;9.68;3.38;;;;;;;4.27;100.00;93143.63;5109451;28;20043;-69
2022/09/19 02:33:04;;;;;;;7.00;3.38;;;;;;;4.23;100.00;93142.41;5109786;28;20088;-69
2022/09/19 02:35:47;;;;;;;10.10;3.42;;;;;;;4.21;100.00;93136.69;5109479;28;20519;-69
2022/09/19 02:38:22;;;;;;;7.93;2.90;;;;;;;4.24;100.00;93146.53;5109752;28;20084;-69
2022/09/19 02:40:56;;;;;;;7.25;3.30;;;;;;;4.24;100.00;93136.34;5109713;28;20051;-69
2022/09/19 02:43:36;;;;;;;6.32;3.08;;;;;;;4.30;100.00;93139.94;5109253;28;20047;-69
2022/09/19 02:46:08;;;;;;;8.95;3.20;;;;;;;4.26;100.00;93142.06;5109238;28;20047;-69
2022/09/19 02:48:47;;;;;;;10.35;3.40;;;;;;;4.19;100.00;93148.00;5109374;28;20043;-69
2022/09/19 02:51:18;;;;;;;9.93;3.55;;;;;;;4.19;100.00;93146.25;5109489;28;20043;-69
2022/09/19 02:53:49;;;;;;;5.63;3.05;;;;;;;4.19;100.00;93155.63;5109309;28;20088;-69
2022/09/19 02:56:19;;;;;;;8.75;4.07;;;;;;;4.15;100.00;93147.56;5109214;28;20043;-69
2022/09/19 02:58:51;;;;;;;7.85;3.45;;;;;;;4.08;100.00;93152.53;5109255;28;20093;-69
2022/09/19 03:01:25;;;;;;;6.63;3.17;;;;;;;3.98;100.00;93141.81;5109094;28;20047;-69
2022/09/19 03:04:15;;;;;;;7.40;2.90;;;;;;;3.95;100.00;93145.50;5109380;28;20043;-69
2022/09/19 03:06:48;;;;;;;59.33;21.63;;;;;;;3.88;100.00;93134.41;5109308;28;20070;-70
2022/09/19 03:09:19;;;;;;;23.33;9.45;;;;;;;3.95;100.00;93144.69;5109360;28;20100;-69
2022/09/19 03:11:52;;;;;;;14.20;6.50;;;;;;;3.93;100.00;93144.09;5108975;28;20048;-69
2022/09/19 03:14:19;;;;;;;12.88;5.32;;;;;;;3.92;100.00;93133.13;5109092;28;20042;-69
2022/09/19 03:16:51;;;;;;;9.80;4.55;;;;;;;3.90;100.00;93134.25;5109104;28;20108;-69
2022/09/19 03:19:18;;;;;;;10.40;5.22;;;;;;;3.87;100.00;93137.91;5109323;28;20039;-69
2022/09/19 03:21:45;;;;;;;10.93;4.53;;;;;;;3.83;100.00;93134.13;5108785;28;20051;-69
2022/09/19 03:24:13;;;;;;;11.90;5.32;;;;;;;3.79;100.00;93133.69;5109312;28;20044;-69
2022/09/19 03:26:39;;;;;;;9.60;5.03;;;;;;;3.71;100.00;93141.38;5109245;28;20168;-69
2022/09/19 03:29:09;;;;;;;10.90;5.60;;;;;;;3.60;100.00;93138.25;5110125;28;20440;-69
2022/09/19 03:31:36;;;;;;;13.65;6.25;;;;;;;3.48;100.00;93131.97;5113047;28;20047;-69
2022/09/19 03:34:04;;;;;;;32.35;19.00;;;;;;;3.53;100.00;93122.13;5113293;28;20167;-69
2022/09/19 03:36:33;;;;;;;63.17;34.55;;;;;;;3.57;100.00;93120.03;5113169;28;20035;-69
2022/09/19 03:39:02;;;;;;;22.20;11.68;;;;;;;3.51;100.00;93120.69;5113315;28;20048;-69
2022/09/19 03:41:31;;;;;;;23.88;11.40;;;;;;;3.51;100.00;93116.41;5113240;28;20039;-69
2022/09/19 03:44:01;;;;;;;18.48;11.77;;;;;;;3.57;100.00;93115.72;5113087;28;20070;-69
2022/09/19 03:46:30;;;;;;;18.67;9.68;;;;;;;3.65;100.00;93116.66;5112827;28;20035;-69
2022/09/19 03:48:57;;;;;;;19.63;12.15;;;;;;;3.69;100.00;93115.31;5112839;28;20143;-69
2022/09/19 03:51:25;;;;;;;19.42;10.70;;;;;;;3.80;100.00;93109.84;5112235;28;20092;-69
2022/09/19 03:53:52;;;;;;;18.38;9.65;;;;;;;3.88;100.00;93104.72;5112875;28;20051;-69
2022/09/19 03:56:19;;;;;;;15.68;9.13;;;;;;;3.90;100.00;93106.28;5112866;28;20047;-69
2022/09/19 03:58:46;;;;;;;19.35;9.43;;;;;;;3.92;100.00;93105.16;5112548;28;20044;-69
2022/09/19 04:01:15;;;;;;;16.73;7.53;;;;;;;3.89;100.00;93100.41;5112637;28;20047;-69
2022/09/19 04:03:43;;;;;;;20.80;8.43;;;;;;;3.77;100.00;93101.78;5112994;28;20054;-70
2022/09/19 04:06:11;;;;;;;21.85;9.52;;;;;;;3.70;100.00;93107.53;5112648;28;20047;-69
2022/09/19 04:08:39;;;;;;;22.10;9.75;;;;;;;3.77;100.00;93102.56;5112556;28;20043;-69
2022/09/19 04:11:06;;;;;;;24.17;10.65;;;;;;;3.77;100.00;93105.13;5112401;28;20092;-69
2022/09/19 04:13:34;;;;;;;24.33;11.50;;;;;;;3.82;100.00;93100.31;5112606;28;20047;-69
2022/09/19 04:16:01;;;;;;;32.65;13.65;;;;;;;3.82;100.00;93107.13;5112093;28;20089;-69
2022/09/19 04:18:28;;;;;;;31.35;14.23;;;;;;;3.81;100.00;93111.44;5112111;28;20044;-69
2022/09/19 04:20:57;;;;;;;33.90;15.10;;;;;;;3.80;100.00;93101.44;5112194;28;20093;-69
2022/09/19 04:23:25;;;;;;;34.38;16.45;;;;;;;3.64;100.00;93092.97;5112457;28;20048;-69
2022/09/19 04:25:53;;;;;;;34.58;16.70;;;;;;;3.61;100.00;93096.66;5111911;28;20082;-69
2022/09/19 04:28:21;;;;;;;33.92;16.63;;;;;;;3.55;100.00;93094.78;5111734;28;20495;-69
2022/09/19 04:30:48;;;;;;;37.60;17.73;;;;;;;3.55;100.00;93096.53;5111772;28;20396;-69
2022/09/19 04:33:15;;;;;;;37.67;17.13;;;;;;;3.56;100.00;93098.13;5112119;28;20469;-69
2022/09/19 04:35:45;;;;;;;33.92;17.38;;;;;;;3.55;100.00;93106.69;5111776;28;20043;-69
2022/09/19 04:38:17;;;;;;;32.83;17.02;;;;;;;3.50;100.00;93093.69;5111942;28;20256;-69
2022/09/19 04:40:45;;;;;;;36.17;15.93;;;;;;;3.52;100.00;93095.09;5111038;28;20079;-69
2022/09/19 04:43:15;;;;;;;25.40;11.68;;;;;;;3.42;100.00;93097.09;5111815;28;20047;-69
2022/09/19 04:45:46;;;;;;;18.35;9.55;;;;;;;3.32;100.00;93098.09;5111479;28;20051;-69
2022/09/19 04:48:13;;;;;;;26.77;12.40;;;;;;;3.52;100.00;93095.09;5111757;28;20043;-69
2022/09/19 04:50:40;;;;;;;22.45;10.82;;;;;;;3.56;100.00;93098.91;5110243;27;20190;-69
2022/09/19 04:53:07;;;;;;;21.60;10.85;;;;;;;3.58;100.00;93102.09;5103351;28;20050;-69
2022/09/19 04:55:33;;;;;;;28.23;12.48;;;;;;;3.71;100.00;93098.94;5110638;28;20117;-69
2022/09/19 04:58:01;;;;;;;23.58;12.32;;;;;;;3.82;100.00;93102.84;5111428;28;20447;-69
2022/09/19 05:00:38;;;;;;;33.28;13.85;;;;;;;3.88;100.00;93101.38;5111055;28;20043;-69
2022/09/19 05:03:07;;;;;;;31.77;14.55;;;;;;;3.91;100.00;93106.13;5110967;28;20048;-69
2022/09/19 05:05:36;;;;;;;31.23;13.45;;;;;;;3.96;100.00;93096.25;5111411;28;20039;-69
2022/09/19 05:08:04;;;;;;;31.92;15.40;;;;;;;4.00;100.00;93099.22;5110905;28;20100;-69
2022/09/19 05:10:32;;;;;;;33.90;16.40;;;;;;;3.98;100.00;93098.63;5111169;28;20043;-69
2022/09/19 05:12:59;;;;;;;29.90;15.75;;;;;;;3.99;100.00;93098.41;5110845;28;20154;-69
2022/09/19 05:15:26;;;;;;;37.00;19.73;;;;;;;4.09;100.00;93094.84;5110970;28;20437;-69
2022/09/19 05:17:55;;;;;;;41.92;22.98;;;;;;;4.12;100.00;93094.53;5110925;28;20044;-69
2022/09/19 05:20:25;;;;;;;38.10;18.83;;;;;;;4.13;100.00;93101.97;5110659;28;20063;-69
2022/09/19 05:22:56;;;;;;;44.38;24.67;;;;;;;4.09;100.00;93089.78;5111130;28;20082;-69
2022/09/19 05:25:23;;;;;;;38.13;24.15;;;;;;;4.24;100.00;93100.75;5110896;28;20051;-69
2022/09/19 05:27:50;;;;;;;29.95;17.00;;;;;;;4.10;100.00;93101.50;5110974;28;20044;-69
2022/09/19 05:30:17;;;;;;;21.45;12.90;;;;;;;4.08;100.00;93101.69;5110693;28;20043;-68
2022/09/19 05:32:44;;;;;;;18.80;11.63;;;;;;;4.05;100.00;93103.78;5110918;28;20093;-69
2022/09/19 05:35:13;;;;;;;22.38;11.18;;;;;;;3.87;100.00;93098.06;5110567;28;20036;-69
2022/09/19 05:37:41;;;;;;;17.40;9.32;;;;;;;3.62;100.00;93107.59;5110542;28;20051;-69
2022/09/19 05:40:10;;;;;;;16.98;7.90;;;;;;;3.62;100.00;93105.06;5110319;28;20532;-69
2022/09/19 05:42:41;;;;;;;16.23;7.65;;;;;;;3.80;100.00;93104.75;5110816;28;20067;-69
2022/09/19 05:45:09;;;;;;;14.13;8.40;;;;;;;3.96;100.00;93103.06;5110255;28;20128;-69
2022/09/19 05:47:38;;;;;;;19.58;9.02;;;;;;;3.97;100.00;93102.91;5110305;28;20445;-69
2022/09/19 05:50:07;;;;;;;24.70;13.20;;;;;;;3.97;100.00;93104.63;5110454;28;20392;-69
2022/09/19 05:55:20;;;;;;;28.77;14.02;;;;;;;4.17;100.00;93099.09;5110381;28;20050;-69
2022/09/19 05:57:51;;;;;;;53.65;24.88;;;;;;;4.18;100.00;93098.91;5110131;28;20380;-68
2022/09/19 06:00:17;;;;;;;47.92;24.52;;;;;;;4.32;100.00;93101.63;5110234;28;20039;-68
2022/09/19 06:02:44;;;;;;;95.63;39.22;;;;;;;4.41;100.00;93100.59;5110130;28;20434;-68
2022/09/19 06:05:11;;;;;;;97.00;39.95;;;;;;;4.39;100.00;93095.69;5109767;28;20096;-68
2022/09/19 06:07:39;;;;;;;77.07;32.50;;;;;;;4.60;100.00;93094.22;5110034;28;20044;-68
2022/09/19 06:10:07;;;;;;;68.50;29.33;;;;;;;4.89;100.00;93099.44;5109829;28;20119;-68
2022/09/19 06:12:33;;;;;;;67.65;30.35;;;;;;;5.27;100.00;93104.41;5109699;28;20051;-68
2022/09/19 06:15:00;;;;;;;59.78;27.02;;;;;;;5.47;100.00;93106.38;5109839;28;20093;-68
2022/09/19 06:17:28;;;;;;;66.85;28.08;;;;;;;5.75;100.00;93106.44;5109725;28;20066;-68
2022/09/19 06:19:54;;;;;;;44.28;21.60;;;;;;;5.82;100.00;93106.50;5109505;28;20046;-68
2022/09/19 06:22:21;;;;;;;37.00;18.35;;;;;;;5.97;100.00;93101.34;5109792;28;20035;-68
2022/09/19 06:24:49;;;;;;;42.45;17.60;;;;;;;6.09;100.00;93108.50;5109795;28;20089;-68
2022/09/19 06:27:16;;;;;;;32.83;14.40;;;;;;;6.20;100.00;93108.00;5104372;27;20085;-69
2022/09/19 06:29:43;;;;;;;23.95;11.05;;;;;;;6.35;100.00;93109.69;5107540;28;20096;-68
2022/09/19 06:32:11;;;;;;;23.27;10.68;;;;;;;6.40;100.00;93112.47;5119701;27;20095;-68
2022/09/19 06:34:38;;;;;;;22.27;11.05;;;;;;;6.62;100.00;93113.19;5130382;27;20047;-68
2022/09/19 06:37:05;;;;;;;30.10;14.65;;;;;;;6.80;100.00;93115.28;5129998;27;20047;-68
2022/09/19 06:39:32;;;;;;;32.47;14.70;;;;;;;7.05;100.00;93116.56;5130278;27;20108;-68
2022/09/19 06:42:00;;;;;;;32.63;14.50;;;;;;;7.37;100.00;93124.56;5130059;27;20537;-68
2022/09/19 06:44:26;;;;;;;47.20;20.27;;;;;;;7.63;100.00;93128.16;5130256;27;20468;-69
2022/09/19 06:46:53;;;;;;;44.90;20.08;;;;;;;7.90;100.00;93115.41;5129820;27;20088;-68
2022/09/19 06:49:20;;;;;;;37.15;16.27;;;;;;;8.15;100.00;93118.19;5130346;27;20107;-68
2022/09/19 06:51:46;;;;;;;39.97;17.95;;;;;;;8.37;100.00;93120.56;5129740;27;20059;-68
2022/09/19 06:54:13;;;;;;;48.30;21.85;;;;;;;8.60;100.00;93127.06;5130312;27;20059;-68
2022/09/19 06:56:41;;;;;;;53.22;22.75;;;;;;;8.78;100.00;93116.19;5130248;27;20418;-68
2022/09/19 06:59:10;;;;;;;62.97;26.48;;;;;;;9.08;100.00;93125.19;5129818;27;20448;-68
2022/09/19 07:01:38;;;;;;;43.10;17.98;;;;;;;9.34;100.00;93124.31;5130043;27;20073;-69
2022/09/19 07:04:04;;;;;;;27.08;14.70;;;;;;;9.48;100.00;93129.34;5101065;27;20477;-69
2022/09/19 07:06:34;;;;;;;30.70;14.35;;;;;;;9.40;100.00;93116.78;5130270;27;20464;-69
2022/09/19 07:09:02;;;;;;;32.67;15.60;;;;;;;9.56;100.00;93112.94;5129774;27;20483;-69
2022/09/19 07:11:28;;;;;;;35.03;15.63;;;;;;;9.79;100.00;93109.88;5129654;28;20057;-69
2022/09/19 07:13:55;;;;;;;41.38;17.00;;;;;;;9.87;97.30;93112.19;5130007;28;20047;-69
2022/09/19 07:16:23;;;;;;;46.88;19.60;;;;;;;9.86;98.03;93109.84;5130068;28;20539;-69
2022/09/19 07:18:51;;;;;;;52.25;21.27;;;;;;;10.09;100.00;93109.25;5117883;28;20052;-69
2022/09/19 07:21:17;;;;;;;44.38;18.98;;;;;;;10.08;96.71;93122.31;5116687;28;20077;-69
2022/09/19 07:23:44;;;;;;;39.05;16.25;;;;;;;9.98;97.98;93113.31;5129932;28;20100;-69
2022/09/19 07:26:11;;;;;;;37.28;15.00;;;;;;;10.20;100.00;93114.72;5129805;28;20483;-69
2022/09/19 07:28:38;;;;;;;38.63;16.63;;;;;;;10.35;96.36;93117.78;5129689;28;20043;-68
2022/09/19 07:31:05;;;;;;;38.72;17.67;;;;;;;10.50;95.38;93112.34;5114391;28;20056;-68
2022/09/19 07:33:33;;;;;;;38.22;17.20;;;;;;;10.55;95.66;93116.81;5123646;28;20108;-68
2022/09/19 07:36:00;;;;;;;50.08;20.25;;;;;;;10.90;97.24;93118.09;5114881;28;20094;-69
2022/09/19 07:38:28;;;;;;;46.45;18.40;;;;;;;11.27;99.63;93109.59;5116371;28;20039;-69
2022/09/19 07:40:55;;;;;;;46.95;19.13;;;;;;;11.66;100.00;93102.38;5129438;28;20043;-69
2022/09/19 07:43:22;;;;;;;41.25;18.38;;;;;;;11.96;94.75;93104.16;5129523;28;20047;-69
2022/09/19 07:45:50;;;;;;;36.42;15.88;;;;;;;12.31;94.70;93105.22;5129584;28;20103;-69
2022/09/19 07:48:18;;;;;;;42.05;18.63;;;;;;;12.47;91.42;93078.03;5129837;28;20097;-69
2022/09/19 07:50:47;;;;;;;39.47;17.23;;;;;;;12.88;91.55;93101.31;5129521;28;20112;-69
2022/09/19 07:53:16;;;;;;;40.28;16.38;;;;;;;13.14;88.07;93109.53;5129740;28;20071;-69
2022/09/19 07:55:43;;;;;;;41.78;17.00;;;;;;;13.43;89.77;93088.94;5129644;28;20051;-69
2022/09/19 07:58:11;;;;;;;43.05;16.77;;;;;;;13.76;89.63;93095.22;5129614;28;20086;-69
2022/09/19 08:00:40;;;;;;;33.38;13.75;;;;;;;13.99;81.03;93100.53;5129437;28;20043;-69
2022/09/19 08:03:09;;;;;;;17.15;7.32;;;;;;;14.09;74.86;93092.94;5129929;28;20039;-69
2022/09/19 08:05:37;;;;;;;20.95;8.45;;;;;;;14.35;80.65;93082.22;5129795;28;20051;-69
2022/09/19 08:08:06;;;;;;;20.33;6.90;;;;;;;14.66;80.98;93073.09;5129321;28;20099;-69
2022/09/19 08:10:34;;;;;;;13.90;6.00;;;;;;;14.68;77.94;93062.53;5129370;28;20499;-69
2022/09/19 08:13:02;;;;;;;20.15;7.40;;;;;;;14.93;75.10;93067.25;5126647;28;20430;-69
2022/09/19 08:15:30;;;;;;;6.72;2.40;;;;;;;15.16;69.54;93064.66;5119630;27;20044;-69
2022/09/19 08:17:57;;;;;;;3.47;1.25;;;;;;;15.32;65.77;93057.88;5133164;27;20088;-69
2022/09/19 08:20:25;;;;;;;2.40;0.70;;;;;;;15.52;62.83;93062.47;5118851;27;20598;-69
2022/09/19 08:22:56;;;;;;;2.08;0.65;;;;;;;15.71;63.40;93060.31;5132933;27;20129;-69
2022/09/19 08:25:24;;;;;;;1.45;0.40;;;;;;;15.87;60.76;93060.44;5133108;27;20047;-69
2022/09/19 08:27:51;;;;;;;1.88;0.50;;;;;;;16.09;63.06;93051.84;5133126;27;20058;-69
2022/09/19 08:30:18;;;;;;;1.75;0.75;;;;;;;16.21;59.08;93055.06;5132829;27;20133;-69
2022/09/19 08:32:46;;;;;;;1.27;0.40;;;;;;;16.16;56.89;93036.88;5132441;27;20100;-69
2022/09/19 08:35:15;;;;;;;2.35;0.40;;;;;;;16.43;56.03;93059.34;5132968;27;20047;-69
2022/09/19 08:37:42;;;;;;;4.00;0.50;;;;;;;16.58;54.53;93052.69;5132401;27;20043;-69
2022/09/19 08:40:19;;;;;;;1.70;0.43;;;;;;;16.69;54.80;93052.50;5132422;27;20051;-69
2022/09/19 08:43:02;;;;;;;1.98;0.30;;;;;;;16.83;51.91;93060.63;5132355;27;20137;-69
2022/09/19 08:45:42;;;;;;;3.17;0.50;;;;;;;16.91;52.38;93050.78;5132333;27;20532;-69
2022/09/19 08:48:15;;;;;;;1.05;0.52;;;;;;;16.93;50.55;93040.94;5132617;27;20108;-69
2022/09/19 08:50:51;;;;;;;1.13;0.30;;;;;;;17.04;51.37;93047.75;5132848;27;20039;-69
2022/09/19 08:53:27;;;;;;;3.10;0.68;;;;;;;17.14;47.32;93051.44;5132269;27;20046;-69
2022/09/19 08:55:55;;;;;;;1.58;0.30;;;;;;;17.25;49.46;93053.03;5132450;27;20494;-69
2022/09/19 08:58:25;;;;;;;1.02;0.30;;;;;;;17.38;48.70;93053.56;5124502;27;20040;-69
2022/09/19 09:00:54;;;;;;;1.40;0.50;;;;;;;17.49;48.06;93044.78;5111525;28;20112;-69
2022/09/19 09:03:30;;;;;;;2.25;0.57;;;;;;;17.37;47.49;93047.63;5092465;28;20086;-69
2022/09/19 09:06:01;;;;;;;1.63;0.35;;;;;;;17.49;47.84;93044.78;5091103;28;20160;-69
2022/09/19 09:08:41;;;;;;;3.20;0.30;;;;;;;17.56;47.97;93049.72;5090867;28;20044;-69
2022/09/19 09:11:18;;;;;;;1.10;0.50;;;;;;;17.67;47.18;93046.09;5090802;28;20040;-69
2022/09/19 09:13:55;;;;;;;1.33;0.40;;;;;;;17.82;47.31;93049.78;5090643;28;20189;-69
2022/09/19 09:16:31;;;;;;;1.40;0.40;;;;;;;17.88;47.03;93040.94;5090982;28;20097;-69
2022/09/19 09:19:17;;;;;;;2.88;0.35;;;;;;;18.05;46.45;93045.09;5091715;28;20540;-69
2022/09/19 09:21:56;;;;;;;7.93;1.05;;;;;;;18.12;46.10;93030.84;5090963;28;20048;-69
2022/09/19 09:24:28;;;;;;;1.17;0.40;;;;;;;18.22;46.42;93024.06;5090627;28;20040;-69
2022/09/19 09:26:59;;;;;;;2.20;0.50;;;;;;;18.30;46.70;93019.09;5090111;28;20560;-69
2022/09/19 09:29:33;;;;;;;2.28;0.50;;;;;;;18.43;44.95;93020.38;5090195;28;20039;-69
2022/09/19 09:32:08;;;;;;;3.95;0.65;;;;;;;18.51;44.94;93013.13;5090498;28;20078;-70
2022/09/19 09:34:40;;;;;;;3.95;0.85;;;;;;;18.58;45.47;93002.41;5090591;28;20466;-70
2022/09/19 09:37:20;;;;;;;1.25;0.40;;;;;;;18.63;45.57;93008.41;5090253;28;20098;-70
2022/09/19 09:40:00;;;;;;;4.32;0.60;;;;;;;18.46;44.97;93005.31;5089868;28;20084;-70
2022/09/19 09:42:30;;;;;;;2.25;0.45;;;;;;;18.45;44.77;92991.53;5090550;28;20135;-70
2022/09/19 09:45:07;;;;;;;4.93;0.80;;;;;;;18.39;43.75;92992.59;5128162;27;20078;-70
2022/09/19 09:47:44;;;;;;;8.15;1.80;;;;;;;18.51;45.56;92993.06;5131707;27;20527;-70
2022/09/19 09:50:34;;;;;;;3.92;0.70;;;;;;;18.57;45.17;92996.44;5128544;27;20574;-70
2022/09/19 09:53:08;;;;;;;2.13;0.50;;;;;;;18.73;43.74;92998.97;5111424;27;20168;-70
2022/09/19 09:58:40;;;;;;;2.47;0.55;;;;;;;19.05;43.77;92990.84;5123291;27;20066;-70
2022/09/19 10:04:15;;;;;;;2.70;0.82;;;;;;;19.27;44.26;92974.06;5130910;27;20172;-71
2022/09/19 10:06:46;;;;;;;7.07;1.08;;;;;;;19.45;44.04;92977.84;5130654;27;20047;-70
2022/09/19 10:09:18;;;;;;;4.25;0.90;;;;;;;19.56;44.03;92980.38;5104230;27;20054;-71
2022/09/19 10:11:52;;;;;;;5.07;1.35;;;;;;;19.66;42.08;92980.31;5130889;27;20111;-70
2022/09/19 10:14:23;;;;;;;2.88;0.80;;;;;;;19.56;41.60;92972.56;5130586;27;20089;-70
2022/09/19 10:16:56;;;;;;;2.05;0.50;;;;;;;19.54;38.33;92979.88;5131179;27;20463;-70
2022/09/19 10:19:27;;;;;;;2.55;0.40;;;;;;;19.49;39.98;92973.66;5124864;27;20122;-70
2022/09/19 10:21:55;;;;;;;1.88;0.60;;;;;;;19.49;39.75;92975.50;5123305;27;20535;-70
2022/09/19 10:24:41;;;;;;;3.53;0.65;;;;;;;19.62;38.75;92964.44;5130601;27;20068;-70
2022/09/19 10:27:11;;;;;;;2.45;1.20;;;;;;;19.71;39.99;92967.25;5130931;27;20047;-70
2022/09/19 10:29:50;;;;;;;2.13;0.60;;;;;;;19.59;39.28;92951.94;5130949;27;20035;-71
2022/09/19 10:32:21;;;;;;;4.18;1.00;;;;;;;19.71;39.51;92958.63;5130947;27;20051;-71
2022/09/19 10:34:49;;;;;;;5.63;0.57;;;;;;;19.83;38.87;92953.88;5130593;27;20043;-70
2022/09/19 10:37:17;;;;;;;2.25;0.43;;;;;;;19.86;36.92;92955.16;5130458;27;20520;-71
2022/09/19 10:39:46;;;;;;;5.00;0.60;;;;;;;19.93;35.07;92949.59;5129976;27;20142;-71
2022/09/19 10:42:24;;;;;;;2.40;0.60;;;;;;;19.96;35.45;92936.03;5130721;27;20050;-71
2022/09/19 10:44:52;;;;;;;4.32;0.93;;;;;;;20.03;35.53;92939.91;5130902;27;20456;-71
2022/09/19 10:47:21;;;;;;;5.88;0.90;;;;;;;19.91;33.39;92939.47;5111693;27;20057;-71
2022/09/19 10:49:51;;;;;;;4.70;1.15;;;;;;;19.99;35.44;92941.50;5098359;27;20182;-71
2022/09/19 10:52:23;;;;;;;10.10;1.20;;;;;;;19.96;34.96;92930.81;5129475;27;20480;-71
2022/09/19 10:54:53;;;;;;;4.32;1.13;;;;;;;20.03;35.76;92931.28;5130223;27;20433;-71
2022/09/19 10:57:40;;;;;;;3.08;0.88;;;;;;;19.99;34.26;92917.25;5129933;27;20440;-71
2022/09/19 11:00:21;;;;;;;3.75;0.75;;;;;;;19.93;35.22;92921.72;5112534;27;20081;-71
2022/09/19 11:02:57;;;;;;;5.97;1.10;;;;;;;19.90;34.15;92914.44;5115611;27;20070;-71
2022/09/19 11:05:26;;;;;;;4.85;0.88;;;;;;;19.92;32.53;92917.56;5117776;27;20124;-71
2022/09/19 11:07:55;;;;;;;2.75;0.55;;;;;;;20.00;34.40;92905.78;5098457;28;20084;-71
2022/09/19 11:10:38;;;;;;;9.23;2.17;;;;;;;20.01;34.59;92905.50;5095911;28;20036;-71
2022/09/19 11:13:12;;;;;;;8.20;2.30;;;;;;;20.04;34.70;92904.16;5089104;28;20486;-72
2022/09/19 11:16:02;;;;;;;3.05;1.27;;;;;;;20.08;36.30;92886.94;5088897;28;20055;-71
2022/09/19 11:18:47;;;;;;;7.43;1.35;;;;;;;20.13;36.67;92873.84;5085299;28;20051;-71
2022/09/19 11:21:29;;;;;;;5.00;1.23;;;;;;;20.16;35.38;92890.75;5088281;28;20154;-72
2022/09/19 11:24:17;;;;;;;5.80;1.00;;;;;;;20.16;34.45;92886.34;5089498;28;20090;-72
2022/09/19 11:27:02;;;;;;;4.85;1.00;;;;;;;20.16;34.32;92895.97;5089647;28;20442;-72
2022/09/19 11:29:52;;;;;;;4.05;0.80;;;;;;;20.21;35.49;92882.09;5125427;28;20583;-71
2022/09/19 11:32:35;;;;;;;4.30;0.82;;;;;;;20.29;34.97;92887.47;5130870;28;20494;-71
2022/09/19 11:35:15;;;;;;;5.80;1.20;;;;;;;20.35;35.14;92874.38;5124393;28;20576;-71
2022/09/19 11:37:54;;;;;;;3.25;0.60;;;;;;;20.43;35.23;92879.00;5122909;28;20836;-72
2022/09/19 11:40:40;;;;;;;1.90;0.40;;;;;;;20.44;34.63;92877.94;5130286;28;20066;-71
2022/09/19 11:43:23;;;;;;;1.25;0.40;;;;;;;20.51;35.16;92865.31;5129337;28;20054;-72
2022/09/19 11:45:57;;;;;;;4.18;0.70;;;;;;;20.59;35.29;92852.72;5121909;28;20048;-72
2022/09/19 11:48:58;;;;;;;4.47;0.70;;;;;;;20.68;35.07;92864.06;5126908;28;20043;-72
2022/09/19 11:51:37;;;;;;;1.00;0.40;;;;;;;20.64;35.08;92871.69;5131413;27;20835;-72
2022/09/19 11:54:28;;;;;;;3.33;0.50;;;;;;;20.75;36.16;92863.72;5133903;27;20051;-72
2022/09/19 11:57:09;;;;;;;3.22;0.47;;;;;;;20.94;36.73;92872.38;5133796;27;20077;-71
2022/09/19 11:59:55;;;;;;;3.60;0.73;;;;;;;21.12;36.35;92864.03;5133637;27;20408;-72